createdAt,value
2022-10-13T00:00:09.271Z,17.17
2022-10-13T00:03:09.752Z,17.1
2022-10-13T00:05:09.306Z,17.11
2022-10-13T00:08:09.809Z,17.11
2022-10-13T00:11:10.743Z,17.12
2022-10-13T00:13:09.505Z,17.12
2022-10-13T00:16:09.344Z,17.19
2022-10-13T00:19:14.262Z,17.1
2022-10-13T00:21:09.280Z,17.07
2022-10-13T00:23:09.293Z,17.09
2022-10-13T00:25:09.296Z,17.06
2022-10-13T00:28:09.304Z,17.11
2022-10-13T00:31:09.273Z,17.15
2022-10-13T00:34:10.358Z,17.11
2022-10-13T00:36:09.339Z,17.11
2022-10-13T00:39:09.275Z,17.02
2022-10-13T00:41:09.334Z,16.99
2022-10-13T00:44:09.642Z,16.93
2022-10-13T00:47:09.627Z,16.81
2022-10-13T00:49:09.314Z,16.82
2022-10-13T00:52:09.425Z,16.9
2022-10-13T00:55:09.283Z,16.89
2022-10-13T00:57:11.203Z,16.91
2022-10-13T01:00:09.280Z,16.91
2022-10-13T01:05:09.404Z,16.84
2022-10-13T01:08:09.409Z,16.75
2022-10-13T01:10:19.595Z,16.78
2022-10-13T01:13:09.958Z,16.83
2022-10-13T01:15:10.320Z,16.79
2022-10-13T01:18:12.709Z,16.68
2022-10-13T01:21:09.271Z,16.75
2022-10-13T01:23:09.275Z,16.71
2022-10-13T01:25:09.611Z,16.7
2022-10-13T01:28:09.272Z,16.7
2022-10-13T01:30:09.387Z,16.56
2022-10-13T01:33:09.289Z,16.51
2022-10-13T01:36:09.462Z,16.56
2022-10-13T01:38:09.304Z,16.51
2022-10-13T01:41:10.836Z,16.41
2022-10-13T01:44:09.265Z,16.41
2022-10-13T01:46:11.453Z,16.51
2022-10-13T01:49:09.302Z,16.53
2022-10-13T01:52:09.263Z,16.58
2022-10-13T01:54:09.300Z,16.48
2022-10-13T01:57:09.312Z,16.37
2022-10-13T02:00:09.264Z,16.33
2022-10-13T02:02:09.654Z,16.41
2022-10-13T02:05:09.307Z,16.44
2022-10-13T02:08:09.314Z,16.45
2022-10-13T02:11:09.292Z,16.45
2022-10-13T02:13:11.987Z,16.4
2022-10-13T02:16:09.314Z,16.29
2022-10-13T02:18:09.771Z,16.26
2022-10-13T02:21:09.345Z,16.26
2022-10-13T02:24:09.303Z,16.27
2022-10-13T02:26:09.361Z,16.35
2022-10-13T02:29:09.319Z,16.37
2022-10-13T02:32:09.304Z,16.24
2022-10-13T02:34:09.346Z,16.26
2022-10-13T02:37:09.321Z,16.12
2022-10-13T02:40:09.311Z,16.15
2022-10-13T02:42:10.400Z,16.24
2022-10-13T02:44:09.315Z,16.25
2022-10-13T02:47:09.334Z,16.33
2022-10-13T02:50:09.402Z,16.41
2022-10-13T02:53:09.334Z,16.46
2022-10-13T02:55:09.334Z,16.48
2022-10-13T02:58:09.737Z,16.44
2022-10-13T03:00:10.408Z,16.42
2022-10-13T03:03:09.542Z,16.37
2022-10-13T03:05:09.343Z,16.43
2022-10-13T03:07:09.327Z,16.36
2022-10-13T03:09:09.613Z,16.26
2022-10-13T03:12:09.425Z,16.42
2022-10-13T03:14:10.004Z,16.48
2022-10-13T03:16:09.304Z,16.48
2022-10-13T03:19:10.188Z,16.39
2022-10-13T03:22:09.408Z,16.4
2022-10-13T03:25:09.518Z,16.37
2022-10-13T03:28:09.274Z,16.42
2022-10-13T03:31:12.084Z,16.43
2022-10-13T03:34:09.304Z,16.34
2022-10-13T03:36:09.334Z,16.34
2022-10-13T03:39:09.351Z,16.29
2022-10-13T03:42:09.290Z,16.2
2022-10-13T03:45:09.340Z,16.2
2022-10-13T03:48:09.347Z,16.12
2022-10-13T03:51:09.588Z,16.01
2022-10-13T03:54:09.609Z,16.1
2022-10-13T03:56:09.300Z,16.2
2022-10-13T03:59:09.606Z,16.26
2022-10-13T04:01:09.360Z,16.34
2022-10-13T04:04:09.319Z,16.4
2022-10-13T04:07:09.326Z,16.41
2022-10-13T04:09:10.200Z,16.39
2022-10-13T04:12:09.304Z,16.32
2022-10-13T04:15:09.315Z,16.2
2022-10-13T04:18:09.287Z,16.24
2022-10-13T04:20:09.318Z,16.21
2022-10-13T04:23:09.329Z,16.2
2022-10-13T04:25:09.379Z,16.18
2022-10-13T04:28:09.310Z,16.21
2022-10-13T04:30:11.498Z,16.21
2022-10-13T04:33:09.358Z,16.2
2022-10-13T04:36:09.300Z,16.24
2022-10-13T04:38:09.312Z,16.33
2022-10-13T04:40:10.568Z,16.35
2022-10-13T04:43:09.321Z,16.42
2022-10-13T04:46:09.310Z,16.45
2022-10-13T04:48:09.315Z,16.41
2022-10-13T04:50:09.319Z,16.4
2022-10-13T04:53:09.362Z,16.45
2022-10-13T04:56:09.294Z,16.44
2022-10-13T04:59:10.725Z,16.34
2022-10-13T05:03:09.351Z,16.34
2022-10-13T05:05:09.394Z,16.31
2022-10-13T05:08:09.358Z,16.33
2022-10-13T05:11:09.345Z,16.29
2022-10-13T05:14:09.543Z,16.35
2022-10-13T05:17:10.442Z,16.32
2022-10-13T05:19:09.496Z,16.27
2022-10-13T05:22:09.366Z,16.24
2022-10-13T05:25:09.381Z,16.14
2022-10-13T05:28:09.334Z,16.06
2022-10-13T05:30:09.352Z,16.06
2022-10-13T05:33:09.363Z,16.08
2022-10-13T05:36:09.340Z,16.09
2022-10-13T05:39:18.064Z,16.14
2022-10-13T05:41:09.331Z,16.17
2022-10-13T05:46:09.337Z,16.25
2022-10-13T05:49:09.314Z,16.32
2022-10-13T05:52:09.332Z,16.36
2022-10-13T05:54:09.339Z,16.39
2022-10-13T05:57:09.396Z,16.39
2022-10-13T06:00:09.328Z,16.37
2022-10-13T06:02:09.387Z,16.39
2022-10-13T06:05:09.336Z,16.35
2022-10-13T06:08:09.318Z,16.37
2022-10-13T06:11:09.336Z,16.4
2022-10-13T06:14:09.768Z,16.43
2022-10-13T06:16:09.364Z,16.42
2022-10-13T06:19:09.517Z,16.42
2022-10-13T06:21:09.343Z,16.41
2022-10-13T06:24:09.520Z,16.37
2022-10-13T06:27:09.323Z,16.41
2022-10-13T06:30:09.345Z,16.4
2022-10-13T06:32:09.386Z,16.41
2022-10-13T06:35:09.334Z,16.39
2022-10-13T06:38:09.352Z,16.34
2022-10-13T06:40:09.675Z,16.36
2022-10-13T06:43:09.342Z,16.36
2022-10-13T06:45:09.338Z,16.37
2022-10-13T06:47:09.336Z,16.4
2022-10-13T06:49:09.437Z,16.44
2022-10-13T06:51:09.380Z,16.44
2022-10-13T06:54:09.512Z,16.43
2022-10-13T06:56:09.326Z,16.49
2022-10-13T06:58:09.360Z,16.48
2022-10-13T07:00:09.381Z,16.51
2022-10-13T07:03:09.324Z,16.48
2022-10-13T07:05:09.587Z,16.46
2022-10-13T07:08:09.384Z,16.45
2022-10-13T07:11:13.085Z,16.51
2022-10-13T07:13:09.460Z,16.54
2022-10-13T07:16:09.325Z,16.54
2022-10-13T07:18:09.379Z,16.52
2022-10-13T07:21:09.366Z,16.49
2022-10-13T07:23:09.384Z,16.5
2022-10-13T07:26:09.303Z,16.52
2022-10-13T07:28:09.355Z,16.52
2022-10-13T07:30:09.370Z,16.53
2022-10-13T07:33:09.334Z,16.54
2022-10-13T07:36:09.410Z,16.62
2022-10-13T07:39:10.601Z,16.62
2022-10-13T07:42:09.353Z,16.56
2022-10-13T07:44:09.771Z,16.56
2022-10-13T07:47:09.325Z,16.62
2022-10-13T07:49:10.173Z,16.68
2022-10-13T07:52:09.314Z,16.67
2022-10-13T07:55:09.334Z,16.68
2022-10-13T07:57:09.349Z,16.67
2022-10-13T08:00:09.370Z,16.7
2022-10-13T08:03:09.331Z,16.75
2022-10-13T08:06:09.340Z,16.82
2022-10-13T08:09:09.641Z,16.82
2022-10-13T08:12:09.349Z,16.85
2022-10-13T08:14:09.661Z,16.82
2022-10-13T08:17:09.368Z,16.83
2022-10-13T08:20:09.342Z,16.85
2022-10-13T08:22:09.870Z,16.85
2022-10-13T08:24:09.408Z,16.87
2022-10-13T08:27:09.371Z,16.87
2022-10-13T08:30:09.390Z,16.89
2022-10-13T08:32:09.376Z,16.94
2022-10-13T08:35:09.371Z,16.95
2022-10-13T08:37:09.374Z,16.95
2022-10-13T08:39:09.437Z,16.95
2022-10-13T08:42:09.358Z,17
2022-10-13T08:44:49.849Z,17.01
2022-10-13T08:47:09.360Z,17.02
2022-10-13T08:50:09.348Z,17.04
2022-10-13T08:52:09.373Z,16.99
2022-10-13T08:55:09.465Z,16.99
2022-10-13T08:58:09.400Z,16.99
2022-10-13T09:01:09.424Z,16.99
2022-10-13T09:04:09.366Z,17.02
2022-10-13T09:06:09.381Z,17.04
2022-10-13T09:09:09.361Z,17.06
2022-10-13T09:11:09.399Z,17.03
2022-10-13T09:14:09.374Z,17.02
2022-10-13T09:17:09.361Z,16.98
2022-10-13T09:19:09.417Z,16.96
2022-10-13T09:22:09.385Z,17
2022-10-13T09:24:09.373Z,17.02
2022-10-13T09:26:09.783Z,17.04
2022-10-13T09:29:09.364Z,17.07
2022-10-13T09:31:11.544Z,17.06
2022-10-13T09:33:09.408Z,17.07
2022-10-13T09:36:09.380Z,17.1
2022-10-13T09:38:09.440Z,17.15
2022-10-13T09:41:09.416Z,17.17
2022-10-13T09:43:09.428Z,17.17
2022-10-13T09:45:09.462Z,17.19
2022-10-13T09:48:09.374Z,17.23
2022-10-13T09:51:09.375Z,17.2
2022-10-13T09:53:09.418Z,17.19
2022-10-13T09:56:09.374Z,17.2
2022-10-13T09:58:09.389Z,17.18
2022-10-13T10:01:09.534Z,17.24
2022-10-13T10:04:09.415Z,17.34
2022-10-13T10:08:09.391Z,17.36
2022-10-13T10:10:09.418Z,17.35
2022-10-13T10:13:09.404Z,17.34
2022-10-13T10:16:09.584Z,17.34
2022-10-13T10:19:09.382Z,17.34
2022-10-13T10:21:09.383Z,17.36
2022-10-13T10:23:09.407Z,17.37
2022-10-13T10:25:10.683Z,17.35
2022-10-13T10:28:09.382Z,17.31
2022-10-13T10:30:09.551Z,17.29
2022-10-13T10:33:09.430Z,17.32
2022-10-13T10:36:09.364Z,17.25
2022-10-13T10:38:09.375Z,17.29
2022-10-13T10:40:10.492Z,17.35
2022-10-13T10:42:09.394Z,17.4
2022-10-13T10:45:09.437Z,17.41
2022-10-13T10:48:09.383Z,17.42
2022-10-13T10:50:09.553Z,17.37
2022-10-13T10:53:09.402Z,17.31
2022-10-13T10:56:09.419Z,17.31
2022-10-13T10:59:09.378Z,17.33
2022-10-13T11:01:09.463Z,17.34
2022-10-13T11:03:09.379Z,17.4
2022-10-13T11:06:09.378Z,17.52
2022-10-13T11:08:09.664Z,17.6
2022-10-13T11:11:09.561Z,17.76
2022-10-13T11:14:09.425Z,17.95
2022-10-13T11:17:09.390Z,18.11
2022-10-13T11:19:09.404Z,18.19
2022-10-13T11:22:09.448Z,18.29
2022-10-13T11:25:09.380Z,18.37
2022-10-13T11:27:09.397Z,18.41
2022-10-13T11:29:09.412Z,18.42
2022-10-13T11:32:09.446Z,18.45
2022-10-13T11:35:09.393Z,18.48
2022-10-13T11:38:12.730Z,18.52
2022-10-13T11:41:09.422Z,18.54
2022-10-13T11:44:09.365Z,18.56
2022-10-13T11:46:09.368Z,18.57
2022-10-13T11:49:09.376Z,18.6
2022-10-13T11:51:10.344Z,18.59
2022-10-13T11:53:09.364Z,18.6
2022-10-13T11:55:09.375Z,18.6
2022-10-13T11:58:09.364Z,18.6
2022-10-13T12:00:09.626Z,18.6
2022-10-13T12:03:09.468Z,18.59
2022-10-13T12:06:09.400Z,18.58
2022-10-13T12:09:11.531Z,18.6
2022-10-13T12:12:09.362Z,18.59
2022-10-13T12:14:09.442Z,18.58
2022-10-13T12:16:09.386Z,18.6
2022-10-13T12:18:09.390Z,18.6
2022-10-13T12:20:09.432Z,18.6
2022-10-13T12:22:09.424Z,18.59
2022-10-13T12:25:09.416Z,18.58
2022-10-13T12:28:09.383Z,18.6
2022-10-13T12:30:09.445Z,18.61
2022-10-13T12:33:09.400Z,18.62
2022-10-13T12:35:09.426Z,18.65
2022-10-13T12:38:09.420Z,18.67
2022-10-13T12:41:09.490Z,18.67
2022-10-13T12:44:09.457Z,18.69
2022-10-13T12:47:09.405Z,18.71
2022-10-13T12:50:09.402Z,18.75
2022-10-13T12:52:09.441Z,18.78
2022-10-13T12:55:09.431Z,18.78
2022-10-13T12:58:09.396Z,18.79
2022-10-13T13:00:09.550Z,18.79
2022-10-13T13:03:09.396Z,18.79
2022-10-13T13:06:09.460Z,18.79
2022-10-13T13:09:09.410Z,18.82
2022-10-13T13:12:09.405Z,18.84
2022-10-13T13:14:10.026Z,18.84
2022-10-13T13:17:09.431Z,18.84
2022-10-13T13:19:09.444Z,18.86
2022-10-13T13:22:09.427Z,18.89
2022-10-13T13:24:16.387Z,18.9
2022-10-13T13:26:09.447Z,18.92
2022-10-13T13:29:09.427Z,18.94
2022-10-13T13:32:09.686Z,19
2022-10-13T13:34:09.716Z,19
2022-10-13T13:37:09.403Z,19.07
2022-10-13T13:39:09.414Z,19.12
2022-10-13T13:41:09.465Z,19.14
2022-10-13T13:44:09.424Z,19.16
2022-10-13T13:46:41.489Z,19.16
2022-10-13T13:49:09.413Z,19.12
2022-10-13T13:51:09.454Z,19.11
2022-10-13T13:54:09.467Z,19.11
2022-10-13T13:57:09.420Z,19.08
2022-10-13T13:59:09.421Z,19.06
2022-10-13T14:01:09.414Z,19.04
2022-10-13T14:04:09.417Z,19.04
2022-10-13T14:06:09.435Z,19.03
2022-10-13T14:09:09.610Z,19.03
2022-10-13T14:11:09.428Z,19.02
2022-10-13T14:13:09.469Z,19
2022-10-13T14:16:09.433Z,18.99
2022-10-13T14:18:09.438Z,18.98
2022-10-13T14:21:09.415Z,18.96
2022-10-13T14:24:09.900Z,18.96
2022-10-13T14:26:09.809Z,18.98
2022-10-13T14:29:09.554Z,18.96
2022-10-13T14:31:09.420Z,18.95
2022-10-13T14:33:09.481Z,18.95
2022-10-13T14:36:09.433Z,18.95
2022-10-13T14:38:09.420Z,18.94
2022-10-13T14:41:09.513Z,18.95
2022-10-13T14:43:09.443Z,18.95
2022-10-13T14:46:09.418Z,18.98
2022-10-13T14:48:09.401Z,18.96
2022-10-13T14:50:09.472Z,18.95
2022-10-13T14:53:09.416Z,18.95
2022-10-13T14:55:09.432Z,18.93
2022-10-13T14:58:09.430Z,18.93
2022-10-13T15:01:09.415Z,18.93
2022-10-13T15:03:09.541Z,18.92
2022-10-13T15:06:09.590Z,18.93
2022-10-13T15:11:09.455Z,18.92
2022-10-13T15:13:09.537Z,18.93
2022-10-13T15:16:09.452Z,18.94
2022-10-13T15:18:09.821Z,18.94
2022-10-13T15:20:09.579Z,18.93
2022-10-13T15:23:09.423Z,18.95
2022-10-13T15:25:09.499Z,18.95
2022-10-13T15:28:09.462Z,18.98
2022-10-13T15:30:09.903Z,18.99
2022-10-13T15:33:09.484Z,18.98
2022-10-13T15:36:09.525Z,18.96
2022-10-13T15:38:09.496Z,18.98
2022-10-13T15:41:09.643Z,18.99
2022-10-13T15:44:09.461Z,18.98
2022-10-13T15:46:09.577Z,18.95
2022-10-13T15:49:09.425Z,18.95
2022-10-13T15:52:09.531Z,18.95
2022-10-13T15:55:09.451Z,18.95
2022-10-13T15:57:09.460Z,18.94
2022-10-13T16:00:09.436Z,18.95
2022-10-13T16:03:09.469Z,18.94
2022-10-13T16:05:10.064Z,18.95
2022-10-13T16:08:09.454Z,18.95
2022-10-13T16:11:09.462Z,18.93
2022-10-13T16:14:09.438Z,18.94
2022-10-13T16:16:09.450Z,18.92
2022-10-13T16:19:09.448Z,18.91
2022-10-13T16:22:09.438Z,18.91
2022-10-13T16:25:09.524Z,18.91
2022-10-13T16:28:09.431Z,18.87
2022-10-13T16:30:09.477Z,18.87
2022-10-13T16:32:09.491Z,18.87
2022-10-13T16:35:09.471Z,18.87
2022-10-13T16:38:09.450Z,18.85
2022-10-13T16:40:09.457Z,18.84
2022-10-13T16:43:09.779Z,18.84
2022-10-13T16:46:09.472Z,18.84
2022-10-13T16:48:09.472Z,18.84
2022-10-13T16:51:09.637Z,18.82
2022-10-13T16:53:09.844Z,18.79
2022-10-13T16:56:11.483Z,18.79
2022-10-13T16:58:09.456Z,18.76
2022-10-13T17:00:09.618Z,18.75
2022-10-13T17:03:09.967Z,18.73
2022-10-13T17:06:09.485Z,18.73
2022-10-13T17:09:09.550Z,18.73
2022-10-13T17:11:09.556Z,18.73
2022-10-13T17:14:09.459Z,18.7
2022-10-13T17:16:09.467Z,18.7
2022-10-13T17:18:09.462Z,18.7
2022-10-13T17:21:09.548Z,18.7
2022-10-13T17:23:10.074Z,18.67
2022-10-13T17:26:09.458Z,18.68
2022-10-13T17:28:09.477Z,18.68
2022-10-13T17:30:09.573Z,18.68
2022-10-13T17:33:09.468Z,18.65
2022-10-13T17:35:09.641Z,18.64
2022-10-13T17:38:09.491Z,18.61
2022-10-13T17:40:09.696Z,18.61
2022-10-13T17:43:09.474Z,18.62
2022-10-13T17:46:31.365Z,18.61
2022-10-13T17:48:09.470Z,18.59
2022-10-13T17:50:09.467Z,18.58
2022-10-13T17:52:09.685Z,18.57
2022-10-13T17:55:09.615Z,18.54
2022-10-13T17:57:09.743Z,18.51
2022-10-13T18:00:09.512Z,18.49
2022-10-13T18:03:09.458Z,18.52
2022-10-13T18:05:09.536Z,18.53
2022-10-13T18:08:09.484Z,18.54
2022-10-13T18:10:09.486Z,18.54
2022-10-13T18:13:09.637Z,18.54
2022-10-13T18:16:09.566Z,18.53
2022-10-13T18:19:09.473Z,18.54
2022-10-13T18:21:09.546Z,18.53
2022-10-13T18:24:09.458Z,18.53
2022-10-13T18:26:09.482Z,18.51
2022-10-13T18:29:09.474Z,18.5
2022-10-13T18:31:09.475Z,18.49
2022-10-13T18:33:09.524Z,18.49
2022-10-13T18:36:09.465Z,18.49
2022-10-13T18:38:09.490Z,18.46
2022-10-13T18:41:09.513Z,18.45
2022-10-13T18:44:09.487Z,18.44
2022-10-13T18:47:09.485Z,18.4
2022-10-13T18:49:09.659Z,18.39
2022-10-13T18:52:09.497Z,18.4
2022-10-13T18:54:09.491Z,18.37
2022-10-13T18:56:09.489Z,18.37
2022-10-13T18:59:09.480Z,18.39
2022-10-13T19:01:09.622Z,18.37
2022-10-13T19:04:09.487Z,18.35
2022-10-13T19:06:09.481Z,18.34
2022-10-13T19:08:09.504Z,18.34
2022-10-13T19:11:09.518Z,18.36
2022-10-13T19:13:09.570Z,18.37
2022-10-13T19:16:09.518Z,18.37
2022-10-13T19:19:09.513Z,18.37
2022-10-13T19:22:09.532Z,18.35
2022-10-13T19:25:09.490Z,18.37
2022-10-13T19:28:09.723Z,18.32
2022-10-13T19:31:09.511Z,18.33
2022-10-13T19:34:09.724Z,18.33
2022-10-13T19:37:09.497Z,18.34
2022-10-13T19:40:09.455Z,18.34
2022-10-13T19:42:09.494Z,18.33
2022-10-13T19:45:09.501Z,18.34
2022-10-13T19:47:09.548Z,18.35
2022-10-13T19:50:09.509Z,18.29
2022-10-13T19:53:09.487Z,18.29
2022-10-13T19:55:09.525Z,18.27
2022-10-13T19:58:09.494Z,18.28
2022-10-13T20:00:09.638Z,18.23
2022-10-13T20:03:09.580Z,18.25
2022-10-13T20:06:09.505Z,18.29
2022-10-13T20:08:09.530Z,18.29
2022-10-13T20:11:09.505Z,18.31
2022-10-13T20:14:09.513Z,18.27
2022-10-13T20:16:09.523Z,18.29
2022-10-13T20:18:09.502Z,18.31
2022-10-13T20:20:09.991Z,18.32
2022-10-13T20:23:09.513Z,18.33
2022-10-13T20:26:09.525Z,18.32
2022-10-13T20:29:09.557Z,18.32
2022-10-13T20:31:09.492Z,18.29
2022-10-13T20:34:09.491Z,18.29
2022-10-13T20:37:09.481Z,18.28
2022-10-13T20:39:09.481Z,18.28
2022-10-13T20:42:09.494Z,18.27
2022-10-13T20:44:09.528Z,18.27
2022-10-13T20:47:09.492Z,18.26
2022-10-13T20:50:09.490Z,18.23
2022-10-13T20:53:09.508Z,18.23
2022-10-13T20:56:09.868Z,18.21
2022-10-13T20:59:09.510Z,18.21
2022-10-13T21:01:09.606Z,18.18
2022-10-13T21:04:09.569Z,18.18
2022-10-13T21:07:09.535Z,18.16
2022-10-13T21:09:09.533Z,18.17
2022-10-13T21:12:09.576Z,18.12
2022-10-13T21:15:09.498Z,18.15
2022-10-13T21:17:09.553Z,18.15
2022-10-13T21:19:09.510Z,18.16
2022-10-13T21:21:09.511Z,18.15
2022-10-13T21:24:09.579Z,18.12
2022-10-13T21:27:09.512Z,18.12
2022-10-13T21:29:09.515Z,18.12
2022-10-13T21:31:09.564Z,18.12
2022-10-13T21:34:09.521Z,18.12
2022-10-13T21:36:09.529Z,18.12
2022-10-13T21:39:09.517Z,18.11
2022-10-13T21:42:09.496Z,18.09
2022-10-13T21:44:09.616Z,18.08
2022-10-13T21:47:09.526Z,18.06
2022-10-13T21:50:09.521Z,18.07
2022-10-13T21:52:09.669Z,18.07
2022-10-13T21:55:09.517Z,18.04
2022-10-13T21:57:09.519Z,18.03
2022-10-13T22:00:09.688Z,18.04
2022-10-13T22:02:09.541Z,18.04
2022-10-13T22:04:09.677Z,18.06
2022-10-13T22:07:09.506Z,18.06
2022-10-13T22:10:09.530Z,18.04
2022-10-13T22:13:09.496Z,18.04
2022-10-13T22:15:09.557Z,18.06
2022-10-13T22:18:09.488Z,18.06
2022-10-13T22:20:09.554Z,18.06
2022-10-13T22:23:09.528Z,18.06
2022-10-13T22:25:09.517Z,18.04
2022-10-13T22:31:09.808Z,18.04
2022-10-13T22:34:09.538Z,18.04
2022-10-13T22:36:09.730Z,18.04
2022-10-13T22:39:09.512Z,18.03
2022-10-13T22:41:09.521Z,18.04
2022-10-13T22:43:09.523Z,18.04
2022-10-13T22:46:09.537Z,18.03
2022-10-13T22:48:09.549Z,18.04
2022-10-13T22:51:09.523Z,18.03
2022-10-13T22:54:09.523Z,18.01
2022-10-13T22:56:09.527Z,18
2022-10-13T22:58:09.553Z,18.01
2022-10-13T23:01:09.519Z,17.96
2022-10-13T23:03:09.547Z,17.96
2022-10-13T23:06:09.535Z,17.93
2022-10-13T23:08:09.555Z,17.93
2022-10-13T23:11:10.108Z,17.96
2022-10-13T23:14:09.523Z,17.96
2022-10-13T23:16:09.559Z,17.96
2022-10-13T23:18:09.800Z,17.96
2022-10-13T23:21:09.579Z,17.95
2022-10-13T23:23:09.560Z,17.95
2022-10-13T23:26:09.543Z,17.96
2022-10-13T23:29:09.525Z,17.93
2022-10-13T23:31:09.722Z,17.94
2022-10-13T23:34:09.529Z,17.95
2022-10-13T23:37:09.521Z,17.98
2022-10-13T23:39:09.556Z,17.95
2022-10-13T23:42:09.526Z,17.91
2022-10-13T23:45:09.558Z,17.91
2022-10-13T23:48:09.533Z,17.94
2022-10-13T23:50:09.512Z,17.92
2022-10-13T23:53:09.530Z,17.91
2022-10-13T23:55:09.708Z,17.91
2022-10-13T23:58:09.522Z,17.92
